createdAt,value
2018-09-25T10:52:33.000Z,0.236
2018-09-25T10:53:32.000Z,1.982
2018-09-25T10:54:31.000Z,1.004
2018-09-25T10:55:31.000Z,2.134
2018-09-25T10:56:30.000Z,0.096
2018-09-25T10:57:31.000Z,3.941
2018-09-25T10:58:31.000Z,0.277
2018-09-25T10:59:31.000Z,1.331
2018-09-25T11:00:31.000Z,0.206
2018-09-25T11:01:30.000Z,0.517
2018-09-25T11:02:30.000Z,1.374
2018-09-25T11:03:30.000Z,0.111
2018-09-25T11:04:31.000Z,0.030
2018-09-25T11:05:30.000Z,0.110
2018-09-25T11:06:30.000Z,0.059
2018-09-25T11:07:30.000Z,0.144
2018-09-25T11:08:30.000Z,1.721
2018-09-25T11:09:31.000Z,1.209
2018-09-25T11:10:30.000Z,0.079
2018-09-25T11:11:30.000Z,0.094
2018-09-25T11:12:30.000Z,0.155
2018-09-25T11:13:30.000Z,0.097
2018-09-25T11:14:30.000Z,0.076
2018-09-25T11:15:30.000Z,0.025
2018-09-25T11:16:29.000Z,0.079
2018-09-25T11:17:30.000Z,0.168
2018-09-25T11:18:30.000Z,0.054
2018-09-25T11:19:30.000Z,0.036
2018-09-25T11:20:30.000Z,0.076
2018-09-25T11:21:30.000Z,0.030
2018-09-25T11:22:31.000Z,0.153
2018-09-25T11:23:30.000Z,0.032
2018-09-25T11:24:30.000Z,0.197
2018-09-25T11:25:30.000Z,0.096
2018-09-25T11:26:30.000Z,0.112
2018-09-25T11:27:31.000Z,0.077
2018-09-25T11:28:30.000Z,0.252
2018-09-25T11:29:29.000Z,2.125
2018-09-25T11:30:29.000Z,3.923
2018-09-25T11:31:30.000Z,3.286
2018-09-25T11:32:31.000Z,1.721
2018-09-25T11:33:31.000Z,0.807
2018-09-25T11:34:30.000Z,1.256
2018-09-25T11:35:31.000Z,3.615
2018-09-25T11:36:31.000Z,3.292
2018-09-25T11:37:30.000Z,3.687
2018-09-25T11:38:30.000Z,4.220
2018-09-25T11:39:31.000Z,2.950
2018-09-25T11:40:30.000Z,1.712
2018-09-25T11:41:31.000Z,2.654
2018-09-25T11:42:29.000Z,3.845
2018-09-25T11:43:29.000Z,3.384
2018-09-25T11:44:31.000Z,2.451
2018-09-25T11:45:30.000Z,1.461
2018-09-25T11:46:31.000Z,1.000
2018-09-25T11:47:31.000Z,0.960
2018-09-25T11:48:31.000Z,1.107
2018-09-25T11:49:31.000Z,2.745
2018-09-25T11:50:31.000Z,2.179
2018-09-25T11:51:30.000Z,2.400
2018-09-25T11:52:30.000Z,1.955
2018-09-25T11:53:30.000Z,2.185
2018-09-25T11:54:30.000Z,3.264
2018-09-25T11:55:30.000Z,2.485
2018-09-25T11:56:30.000Z,2.031
2018-09-25T11:57:31.000Z,1.610
2018-09-25T11:58:30.000Z,1.489
2018-09-25T11:59:30.000Z,2.279
2018-09-25T12:00:30.000Z,3.079
2018-09-25T12:01:30.000Z,3.358
2018-09-25T12:02:31.000Z,2.416
2018-09-25T12:03:30.000Z,5.256
2018-09-25T12:04:30.000Z,2.960
2018-09-25T12:06:30.000Z,2.987
2018-09-25T12:07:30.000Z,3.365
2018-09-25T12:08:30.000Z,1.065
2018-09-25T12:09:31.000Z,0.649
2018-09-25T12:10:29.000Z,0.373
2018-09-25T12:11:31.000Z,0.111
2018-09-25T12:12:30.000Z,0.681
2018-09-25T12:13:30.000Z,6.837
2018-09-25T12:14:30.000Z,5.178
2018-09-25T12:15:30.000Z,2.559
2018-09-25T12:16:31.000Z,5.685
2018-09-25T12:17:31.000Z,5.361
2018-09-25T12:18:30.000Z,6.418
2018-09-25T12:19:31.000Z,7.576
2018-09-25T12:20:29.000Z,8.424
2018-09-25T12:21:31.000Z,4.083
2018-09-25T12:22:30.000Z,7.746
2018-09-25T12:23:30.000Z,4.761
2018-09-25T12:24:31.000Z,2.208
2018-09-25T12:25:30.000Z,2.448
2018-09-25T12:26:30.000Z,3.255
2018-09-25T12:27:31.000Z,6.064
2018-09-25T12:28:31.000Z,3.951
2018-09-25T12:29:30.000Z,2.811
2018-09-25T12:30:30.000Z,8.310
2018-09-25T12:31:31.000Z,6.349
2018-09-25T12:32:29.000Z,7.376
2018-09-25T12:33:29.000Z,3.168
2018-09-25T12:34:30.000Z,7.313
2018-09-25T12:35:30.000Z,4.517
2018-09-25T12:36:30.000Z,3.774
2018-09-25T12:37:30.000Z,3.021
2018-09-25T12:38:30.000Z,4.400
2018-09-25T12:39:30.000Z,4.246
2018-09-25T12:40:30.000Z,5.707
2018-09-25T12:41:30.000Z,2.532
2018-09-25T12:42:30.000Z,1.976
2018-09-25T12:43:31.000Z,2.066
2018-09-25T12:44:29.000Z,0.536
2018-09-25T12:45:31.000Z,0.588
2018-09-25T12:46:29.000Z,0.724
2018-09-25T12:47:30.000Z,1.612
2018-09-25T12:48:29.000Z,1.493
2018-09-25T12:49:30.000Z,1.186
2018-09-25T12:50:29.000Z,2.162
2018-09-25T12:51:31.000Z,2.681
2018-09-25T12:52:29.000Z,2.839
2018-09-25T12:53:31.000Z,3.566
2018-09-25T12:54:29.000Z,2.459
2018-09-25T12:55:30.000Z,1.351
2018-09-25T12:56:30.000Z,2.214
2018-09-25T12:57:31.000Z,1.270
2018-09-25T12:58:30.000Z,2.455
2018-09-25T12:59:30.000Z,1.663
2018-09-25T13:00:30.000Z,1.564
2018-09-25T13:01:31.000Z,3.396
2018-09-25T13:02:29.000Z,3.514
2018-09-25T13:03:30.000Z,2.309
2018-09-25T13:04:31.000Z,4.207
2018-09-25T13:05:31.000Z,3.185
2018-09-25T13:06:30.000Z,2.156
2018-09-25T13:07:30.000Z,0.365
2018-09-25T13:08:30.000Z,0.272
2018-09-25T13:09:31.000Z,0.170
2018-09-25T13:10:31.000Z,0.051
2018-09-25T13:11:30.000Z,0.056
2018-09-25T13:12:30.000Z,0.108
2018-09-25T13:13:31.000Z,0.229
2018-09-25T13:14:31.000Z,0.092
2018-09-25T13:15:30.000Z,0.193
2018-09-25T13:16:30.000Z,0.118
2018-09-25T13:17:31.000Z,0.039
2018-09-25T13:18:30.000Z,0.081
2018-09-25T13:19:31.000Z,0.038
2018-09-25T13:20:30.000Z,0.074
2018-09-25T13:21:30.000Z,0.110
2018-09-25T13:22:30.000Z,0.064
2018-09-25T13:23:31.000Z,0.445
2018-09-25T13:24:30.000Z,0.367
2018-09-25T13:25:31.000Z,0.039
2018-09-25T13:26:31.000Z,0.178
2018-09-25T13:27:30.000Z,0.128
2018-09-25T13:28:30.000Z,0.055
2018-09-25T13:29:30.000Z,0.093
2018-09-25T13:30:30.000Z,0.089
2018-09-25T13:31:29.000Z,0.038
2018-09-25T13:32:30.000Z,0.078
2018-09-25T13:33:30.000Z,0.101
2018-09-25T13:34:30.000Z,1.028
2018-09-25T13:35:30.000Z,0.155
2018-09-25T13:36:31.000Z,0.070
2018-09-25T13:37:30.000Z,1.930
2018-09-25T13:38:30.000Z,2.214
2018-09-25T13:39:32.000Z,0.062
2018-09-25T13:40:30.000Z,0.109
